Copper Cliff, Canada
Current Conditions -  °F | °C
As of 9:00 PM on Monday 24 Nov 2014 (Local Time) from CYSB Reporting Station
Light Rain Light Rain  
Wind Chill: 34°   Ceiling: 1000
Heat Index: 39°   Visibility: 8mi
Dew Point: 39°   Wind: 7mph
Humidity: 100%   Direction: 290°WNW
Pressure: 29.17"   Gusts: NA
Location:  46.47°N, 81.07°W
Report Text: CYSB 250200Z 29006KT 8SM -RA OVC010 04/04 A2917 RMK SF8 CIG VRB 003-017 SLP888
Loading
Personal Weather Stations






























Interactive Weather Map New forecast layout! Learn more

10-Day Weather Forecast

Advertisements
Track Severe Weather on mobile